Terminal Aerodrome Forecast
Issued by NWS

Home | Current Version | Previous Version | Text Only | Print | Product List | Glossary On
Versions: 1 2 3 4 5 6 7 8 9 10 11 12 13 14 15 16 17 18 19 20 21
000
FTUS42 KMLB 252325
TAFFPR
TAF
KFPR 252325Z 2600/2624 05004KT P6SM FEW035 SCT250
     FM260200 29003KT P6SM FEW015
     FM261400 30004KT P6SM FEW025
     FM261800 07007KT P6SM FEW035=

USA.gov is the U.S. government's official web portal to all federal, state and local government web resources and services.